Flight Track Log - Related Links

Times and Time Zones

All times are in EST time to prevent confusion due to time zone crossing. See the SKW7427 flight status page for this flight to view local times or setup timezone preferences in your user account.

Time Position Orientation Groundspeed Altitude Reporting Facility
EST Latitude Longitude Course Direction KTS MPH feet Rate Location/Type
Sun 08:36:35 PM 44.9000 -93.2333 352° North 161 185 2,900  Level Minneapolis TRACON
Sun 08:37:28 PM 44.9475 -93.2433 352° North 183 211 4,200 2,504 Climbing Minneapolis Center
Sun 08:38:30 PM 45.0061 -93.2514 354° North 218 251 7,700 2,855 Climbing Minneapolis Center
Sun 08:39:32 PM 45.0800 -93.2394 North 265 305 10,100 2,878 Climbing Minneapolis Center
Sun 08:40:33 PM 45.1597 -93.2278 North 285 328 13,600 2,341 Climbing Minneapolis Center
Sun 08:41:35 PM 45.2569 -93.2347 357° North 304 350 14,900 1,317 Climbing Minneapolis Center
Sun 08:42:36 PM 45.3506 -93.2392 358° North 336 387 16,300 1,463 Climbing Minneapolis Center
Sun 08:43:38 PM 45.4461 -93.2436 358° North 342 394 17,900 1,597 Climbing Minneapolis Center
Sun 08:44:40 PM 45.5403 -93.2492 358° North 340 391 19,600 1,561 Climbing Minneapolis Center
Sun 08:45:41 PM 45.6367 -93.2547 358° North 345 397 21,100 1,415 Climbing Minneapolis Center
Sun 08:46:43 PM 45.7361 -93.2581 359° North 355 409 22,500 1,306 Climbing Minneapolis Center
Sun 08:47:45 PM 45.8375 -93.2636 358° North 364 419 23,800 1,306 Climbing Minneapolis Center
Sun 08:48:47 PM 45.9619 -93.2708 358° North 372 428 25,200 1,073 Climbing Minneapolis Center
Sun 08:49:48 PM 46.0683 -93.2744 359° North 379 436 26,000 390 Climbing Minneapolis Center
Sun 08:50:50 PM 46.1797 -93.2792 358° North 394 453 26,000  Level Minneapolis Center
Sun 08:51:52 PM 46.2992 -93.2864 358° North 409 471 26,000  Level Minneapolis Center
Sun 08:52:54 PM 46.4108 -93.2917 358° North 405 466 26,000  Level Minneapolis Center
Sun 08:53:55 PM 46.5175 -93.2983 358° North 387 445 26,000  Level Minneapolis Center
Sun 08:54:57 PM 46.6200 -93.3028 358° North 373 429 26,000  Level Minneapolis Center
Sun 08:55:59 PM 46.7197 -93.3083 358° North 363 418 26,000  Level Minneapolis Center
Sun 08:57:01 PM 46.8206 -93.3125 358° North 363 418 26,000  Level Minneapolis Center
Sun 08:58:02 PM 46.9425 -93.3194 358° North 365 420 26,000  Level Minneapolis Center
Sun 08:59:04 PM 47.0431 -93.3233 358° North 362 417 26,000 -339 Level Minneapolis Center
Sun 09:00:06 PM 47.1442 -93.3300 357° North 363 418 25,300 -1,113 Descending Minneapolis Center
Sun 09:01:08 PM 47.2531 -93.3358 358° North 383 441 23,700 -1,548 Descending Minneapolis Center
Sun 09:02:10 PM 47.3639 -93.3411 358° North 390 449 22,100 -2,032 Descending Minneapolis Center
Sun 09:03:12 PM 47.4686 -93.3478 358° North 373 429 19,500 -2,419 Descending Minneapolis Center
Sun 09:04:14 PM 47.5714 -93.3539 358° North 367 422 17,100 -2,400 Descending Minneapolis Center
Sun 09:06:17 PM 47.7772 -93.3653 358° North 369 425 12,100 -2,270 Descending Minneapolis Center
Sun 09:07:19 PM 47.8783 -93.3694 358° North 320 368 10,100 -2,468 Descending Minneapolis Center
Sun 09:08:21 PM 47.9483 -93.3731 358° North 273 314 7,000 -2,806 Descending Minneapolis Center
Sun 09:09:23 PM 48.0156 -93.3789 357° North 256 295 4,300 -1,463 Descending Minneapolis Center
Sun 09:10:24 PM 48.0792 -93.3819 358° North 243 280 4,000 -146 Descending Minneapolis Center
Sun 09:11:26 PM 48.1444 -93.3808 North 237 273 4,000  Level Minneapolis Center
Sun 09:12:28 PM 48.2094 -93.3636 10° North 235 270 4,000  Level Minneapolis Center
Sun 09:13:30 PM 48.2753 -93.3411 13° North 238 274 4,000  Level Minneapolis Center
Sun 09:14:32 PM 48.3556 -93.3164 12° North 242 278 4,000  Level Minneapolis Center
Sun 09:15:33 PM 48.4214 -93.2958 12° North 243 280 4,000 244 Level Minneapolis Center
Sun 09:16:35 PM 48.4856 -93.2861 North 239 275 4,500 532 Climbing Minneapolis Center
Sun 09:17:37 PM 48.5342 -93.3578 316° Northwest 239 275 5,100 -49 Climbing Minneapolis Center
Sun 09:18:38 PM 48.5747 -93.4247 312° West 226 260 4,400 -195 Descending Minneapolis Center
Sun 09:19:40 PM 48.5506 -93.5019 245° Southwest 237 273 4,700  Climbing Minneapolis Center
Sun 09:20:42 PM 48.4869 -93.5186 190° South 244 281 4,400 -629 Descending Minneapolis Center
Sun 09:21:44 PM 48.4253 -93.4183 133° Southeast 266 306 3,400 -488 Descending Minneapolis Center
Sun 09:22:45 PM 48.3986 -93.3408 117° Southeast 251 289 3,400  Level Minneapolis Center
Sun 09:23:47 PM 48.4267 -93.2861 52° Northeast 197 227 3,400  Level Minneapolis Center
Sun 09:24:48 PM 48.4658 -93.2731 12° North 165 190 3,400 -195 Level Minneapolis Center
Sun 09:25:50 PM 48.4958 -93.2975 332° Northwest 137 158 3,000 -341 Descending Minneapolis Center
Sun 09:26:51 PM 48.5233 -93.3442 312° West 131 151 2,700 -295 Descending Minneapolis Center
Sun 09:28:00 PM 48.5500 -93.4000 345° North  Level FlightAware Approximate
Sun 09:35:00 PM 48.5656 -93.4022 345° North  Level Estimated
Sun 09:36:00 PM 48.5656 -93.4022 345° North  Level Estimated
Sun 09:37:00 PM 48.5656 -93.4022 345° North  Level Estimated
Sun 09:38:00 PM 48.5656 -93.4022 345° North  Level Estimated
Sun 09:39:00 PM 48.5656 -93.4022 345° North  Level Estimated
Sun 09:40:00 PM 48.5656 -93.4022 345° North  Level Estimated
Sun 09:41:00 PM 48.5656 -93.4022 345° North  Level Estimated

Login

Don't have an account? Register now (free) for customized features, flight alerts, and more!